Aviation Digital Data Service (ADDS)

Output produced by METARs form (0651 UTC 23 May 2017)
found at http://aviationweather.gov/adds/metars/
 
KBHB 230520Z 2306/2406 18007KT 3SM -SHRA BR OVC005 
     FM231030 18004KT 5SM BR OVC008 
     FM231200 VRB03KT P6SM BKN020 
     FM231400 24005KT P6SM SCT040 
     FM231800 21007KT P6SM SCT060 
     FM240300 VRB03KT P6SM SCT120